Terminal Aerodrome Forecast
Issued by NWS

Home | Current Version | Previous Version | Text Only | Print | Product List | Glossary On
Versions: 1 2 3 4 5 6 7 8 9 10 11 12 13 14
000
FTUS46 KPDT 290500
TAFDLS
TAF
KDLS 290520Z 2906/3006 30009KT P6SM SKC
     FM291600 31011KT P6SM FEW250
     FM291800 32018G25KT P6SM BKN200=

USA.gov is the U.S. government's official web portal to all federal, state and local government web resources and services.